createdAt,value
2022-07-26T00:00:44.552Z,75489.16
2022-07-26T00:04:47.434Z,75509.94
2022-07-26T00:08:49.399Z,75514.06
2022-07-26T00:12:50.935Z,75526.53
2022-07-26T00:16:53.008Z,75526.53
2022-07-26T00:20:56.026Z,75532.75
2022-07-26T00:24:57.559Z,75555.59
2022-07-26T00:28:59.069Z,75559.75
2022-07-26T00:33:00.618Z,75580.50
2022-07-26T00:37:03.591Z,75572.19
2022-07-26T00:41:05.807Z,75592.97
2022-07-26T00:45:09.374Z,75574.28
2022-07-26T00:49:12.015Z,75588.81
2022-07-26T00:53:15.854Z,75592.97
2022-07-26T00:57:17.560Z,75584.66
2022-07-26T01:01:19.284Z,75605.41
2022-07-26T01:05:21.995Z,75607.50
2022-07-26T01:09:24.918Z,75613.72
2022-07-26T01:13:28.159Z,75624.09
2022-07-26T01:17:32.212Z,75632.41
2022-07-26T01:21:39.395Z,75649.00
2022-07-26T01:25:43.658Z,75638.63
2022-07-26T01:29:47.583Z,75646.94
2022-07-26T01:33:49.155Z,75644.84
2022-07-26T01:37:53.351Z,75663.53
2022-07-26T01:41:55.087Z,75684.28
2022-07-26T01:45:56.916Z,75659.38
2022-07-26T01:49:58.447Z,75678.06
2022-07-26T01:54:02.000Z,75684.28
2022-07-26T01:58:04.531Z,75694.69
2022-07-26T02:02:06.162Z,75696.75
2022-07-26T02:06:08.372Z,75688.44
2022-07-26T02:10:13.584Z,75698.81
2022-07-26T02:14:25.727Z,75707.13
2022-07-26T02:18:29.318Z,75711.28
2022-07-26T02:22:30.950Z,75711.28
2022-07-26T02:26:34.137Z,75727.88
2022-07-26T02:30:35.677Z,75725.81
2022-07-26T02:34:37.414Z,75742.41
2022-07-26T02:38:38.902Z,75740.34
2022-07-26T02:42:42.034Z,75717.50
2022-07-26T02:46:43.616Z,75727.88
2022-07-26T02:50:45.203Z,75732.03
2022-07-26T02:54:46.875Z,75723.75
2022-07-26T02:58:49.894Z,75732.03
2022-07-26T03:02:51.882Z,75725.81
2022-07-26T03:06:53.601Z,75763.19
2022-07-26T03:10:55.399Z,75767.34
2022-07-26T03:14:58.257Z,75781.88
2022-07-26T03:19:00.162Z,75767.34
2022-07-26T03:23:01.652Z,75765.25
2022-07-26T03:27:03.607Z,75763.19
2022-07-26T03:31:06.468Z,75761.09
2022-07-26T03:35:09.461Z,75756.94
2022-07-26T03:39:13.270Z,75744.50
2022-07-26T03:43:14.957Z,75742.41
2022-07-26T03:47:17.931Z,75744.50
2022-07-26T03:51:19.598Z,75734.13
2022-07-26T03:55:21.279Z,75738.28
2022-07-26T03:59:22.855Z,75748.66
2022-07-26T04:03:25.827Z,75754.88
2022-07-26T04:07:27.441Z,75729.97
2022-07-26T04:11:29.070Z,75713.34
2022-07-26T04:15:30.695Z,75713.34
2022-07-26T04:19:33.580Z,75717.50
2022-07-26T04:23:41.563Z,75721.66
2022-07-26T04:27:43.404Z,75729.97
2022-07-26T04:31:44.887Z,75736.19
2022-07-26T04:35:47.767Z,75732.03
2022-07-26T04:39:54.461Z,75723.75
2022-07-26T04:43:56.503Z,75713.34
2022-07-26T04:47:58.363Z,75717.50
2022-07-26T04:52:01.487Z,75715.44
2022-07-26T04:56:03.354Z,75721.66
2022-07-26T05:00:23.417Z,75707.13
2022-07-26T05:04:25.636Z,75694.69
2022-07-26T05:08:28.636Z,75698.81
2022-07-26T05:12:30.081Z,75705.06
2022-07-26T05:16:31.842Z,75694.69
2022-07-26T05:20:34.272Z,75694.69
2022-07-26T05:24:37.051Z,75700.91
2022-07-26T05:28:39.064Z,75698.81
2022-07-26T05:32:40.518Z,75698.81
2022-07-26T05:36:42.244Z,75673.91
2022-07-26T05:40:50.303Z,75669.75
2022-07-26T05:44:52.284Z,75661.47
2022-07-26T05:48:54.057Z,75653.16
2022-07-26T05:52:55.567Z,75671.84
2022-07-26T05:56:58.791Z,75671.84
2022-07-26T06:01:00.263Z,75690.53
2022-07-26T06:05:01.779Z,75725.81
2022-07-26T06:09:03.778Z,75734.13
2022-07-26T06:13:06.787Z,75721.66
2022-07-26T06:17:08.538Z,75721.66
2022-07-26T06:21:10.102Z,75771.47
2022-07-26T06:25:12.390Z,75738.28
2022-07-26T06:29:15.250Z,75721.66
2022-07-26T06:33:16.877Z,75738.28
2022-07-26T06:37:18.355Z,75729.97
2022-07-26T06:41:19.961Z,75719.59
2022-07-26T06:45:23.186Z,75729.97
2022-07-26T06:49:25.172Z,75744.50
2022-07-26T06:53:26.738Z,75723.75
2022-07-26T06:57:28.358Z,75711.28
2022-07-26T07:01:57.780Z,75698.81
2022-07-26T07:05:52.911Z,75700.91
2022-07-26T07:09:54.673Z,75692.59
2022-07-26T07:13:56.183Z,75705.06
2022-07-26T07:17:59.070Z,75711.28
2022-07-26T07:22:01.411Z,75692.59
2022-07-26T07:26:03.041Z,75702.97
2022-07-26T07:30:05.953Z,75698.81
2022-07-26T07:34:11.033Z,75684.28
2022-07-26T07:38:12.862Z,75684.28
2022-07-26T07:42:14.348Z,75700.91
2022-07-26T07:46:16.458Z,75698.81
2022-07-26T07:50:19.510Z,75678.06
2022-07-26T07:54:22.287Z,75667.69
2022-07-26T07:58:24.084Z,75673.91
2022-07-26T08:02:25.565Z,75642.78
2022-07-26T08:06:28.408Z,75609.56
2022-07-26T08:10:30.366Z,75617.88
2022-07-26T08:14:31.840Z,75580.50
2022-07-26T08:18:33.328Z,75541.06
2022-07-26T08:22:36.512Z,75526.53
2022-07-26T08:26:38.007Z,75518.22
2022-07-26T08:30:39.677Z,75476.72
2022-07-26T08:34:41.564Z,75518.22
2022-07-26T08:38:47.154Z,75501.63
2022-07-26T08:42:52.583Z,75495.41
2022-07-26T08:46:54.378Z,75418.59
2022-07-26T08:50:56.394Z,75372.94
2022-07-26T08:54:59.233Z,75345.94
2022-07-26T08:59:06.682Z,75387.47
2022-07-26T09:03:23.462Z,75431.03
2022-07-26T09:07:24.980Z,75165.34
2022-07-26T09:11:31.279Z,75115.53
2022-07-26T09:15:32.734Z,75011.75
2022-07-26T09:19:34.298Z,74964.03
2022-07-26T09:23:39.626Z,74932.91
2022-07-26T09:27:42.565Z,74717.06
2022-07-26T09:31:44.121Z,74675.53
2022-07-26T09:36:01.040Z,74669.31
2022-07-26T09:40:05.543Z,74588.38
2022-07-26T09:44:22.237Z,74451.41
2022-07-26T09:48:33.103Z,74729.50
2022-07-26T09:52:57.717Z,74756.47
2022-07-26T09:57:00.271Z,74741.97
2022-07-26T10:01:03.568Z,74748.19
2022-07-26T10:05:06.320Z,74837.44
2022-07-26T10:09:09.675Z,74908.00
2022-07-26T10:13:11.669Z,74854.03
2022-07-26T10:17:49.409Z,74696.28
2022-07-26T10:21:51.104Z,74802.16
2022-07-26T10:25:52.963Z,74899.69
2022-07-26T10:30:23.012Z,74725.34
2022-07-26T10:34:34.460Z,74789.69
2022-07-26T10:38:37.544Z,74845.72
2022-07-26T10:42:43.303Z,74928.75
2022-07-26T10:47:15.581Z,74781.38
2022-07-26T10:51:26.448Z,74634.03
2022-07-26T10:55:28.045Z,74663.09
2022-07-26T10:59:53.611Z,74733.66
2022-07-26T11:03:52.775Z,74648.56
2022-07-26T11:08:02.203Z,74634.03
2022-07-26T11:12:15.411Z,74546.88
2022-07-26T11:16:16.900Z,74565.56
2022-07-26T11:20:29.402Z,74683.84
2022-07-26T11:24:33.945Z,74883.09
2022-07-26T11:28:46.580Z,75040.81
2022-07-26T11:32:52.504Z,75098.94
2022-07-26T11:36:55.649Z,75223.47
2022-07-26T11:40:58.464Z,75323.09
2022-07-26T11:45:00.115Z,75364.63
2022-07-26T11:49:01.898Z,75391.59
2022-07-26T11:53:20.916Z,75441.44
2022-07-26T11:57:28.850Z,75472.56
2022-07-26T12:01:30.604Z,75476.72
2022-07-26T12:05:32.164Z,75505.78
2022-07-26T12:09:35.152Z,75495.41
2022-07-26T12:13:55.826Z,75505.78
2022-07-26T12:17:59.734Z,75514.06
2022-07-26T12:22:12.074Z,75520.31
2022-07-26T12:26:25.128Z,75476.72
2022-07-26T12:30:30.974Z,75447.66
2022-07-26T12:34:33.667Z,75404.06
2022-07-26T12:38:39.112Z,75420.66
2022-07-26T12:42:42.414Z,75352.16
2022-07-26T12:46:45.379Z,75294.06
2022-07-26T12:50:46.881Z,75188.19
2022-07-26T12:54:49.807Z,74893.47
2022-07-26T12:58:51.447Z,74993.09
2022-07-26T13:02:54.329Z,75082.34
2022-07-26T13:06:56.875Z,75107.25
2022-07-26T13:11:00.173Z,75146.69
2022-07-26T13:15:01.798Z,75040.81
2022-07-26T13:19:04.778Z,75080.25
2022-07-26T13:23:06.936Z,75107.25
2022-07-26T13:27:10.128Z,75138.38
2022-07-26T13:31:12.437Z,75101.00
2022-07-26T13:35:15.346Z,74970.25
2022-07-26T13:39:16.927Z,74700.44
2022-07-26T13:43:18.634Z,74528.19
2022-07-26T13:47:20.132Z,74600.84
2022-07-26T13:51:23.222Z,74634.03
2022-07-26T13:55:25.345Z,74725.34
2022-07-26T13:59:27.651Z,74727.44
2022-07-26T14:03:34.978Z,74586.31
2022-07-26T14:07:38.262Z,74795.91
2022-07-26T14:11:40.632Z,74970.25
2022-07-26T14:15:42.149Z,75061.59
2022-07-26T14:19:43.772Z,75103.09
2022-07-26T14:23:46.733Z,75113.47
2022-07-26T14:27:48.613Z,75123.84
2022-07-26T14:31:50.326Z,75142.53
2022-07-26T14:35:51.801Z,75177.81
2022-07-26T14:39:54.619Z,75225.56
2022-07-26T14:43:56.080Z,75250.47
2022-07-26T14:47:57.563Z,75269.13
2022-07-26T14:51:59.085Z,75271.22
2022-07-26T14:56:02.086Z,75279.53
2022-07-26T15:00:05.353Z,75269.13
2022-07-26T15:04:07.166Z,75256.69
2022-07-26T15:08:08.688Z,75262.91
2022-07-26T15:12:11.538Z,75287.81
2022-07-26T15:16:14.440Z,75260.84
2022-07-26T15:20:16.041Z,75248.38
2022-07-26T15:24:17.761Z,75177.81
2022-07-26T15:28:20.764Z,75121.78
2022-07-26T15:32:22.355Z,75140.44
2022-07-26T15:36:23.864Z,75167.44
2022-07-26T15:40:25.458Z,75173.66
2022-07-26T15:44:28.340Z,75186.13
2022-07-26T15:48:29.841Z,75213.09
2022-07-26T15:52:31.331Z,75240.09
2022-07-26T15:56:32.798Z,75265.00
2022-07-26T16:00:35.811Z,75260.84
2022-07-26T16:04:37.539Z,75252.53
2022-07-26T16:08:52.741Z,75248.38
2022-07-26T16:13:00.549Z,75277.44
2022-07-26T16:17:03.581Z,75285.75
2022-07-26T16:21:05.175Z,75310.66
2022-07-26T16:25:08.142Z,75352.16
2022-07-26T16:29:09.871Z,75335.56
2022-07-26T16:33:12.957Z,75321.03
2022-07-26T16:37:14.432Z,75341.78
2022-07-26T16:41:16.813Z,75377.06
2022-07-26T16:45:19.531Z,75370.84
2022-07-26T16:49:22.566Z,75404.06
2022-07-26T16:53:24.152Z,75401.97
2022-07-26T16:57:25.722Z,75391.59
2022-07-26T17:01:27.433Z,75370.84
2022-07-26T17:05:30.365Z,75368.78
2022-07-26T17:09:32.887Z,75370.84
2022-07-26T17:13:34.531Z,75397.84
2022-07-26T17:17:36.285Z,75401.97
2022-07-26T17:21:39.300Z,75389.53
2022-07-26T17:25:40.813Z,75420.66
2022-07-26T17:29:42.782Z,75395.75
2022-07-26T17:33:44.395Z,75441.44
2022-07-26T17:37:48.350Z,75449.72
2022-07-26T17:41:49.923Z,75472.56
2022-07-26T17:45:51.508Z,75466.34
2022-07-26T17:49:52.999Z,75470.47
2022-07-26T17:53:55.803Z,75464.25
2022-07-26T17:57:57.291Z,75472.56
2022-07-26T18:01:58.857Z,75503.69
2022-07-26T18:06:00.465Z,75495.41
2022-07-26T18:10:04.079Z,75501.63
2022-07-26T18:14:05.934Z,75541.06
2022-07-26T18:18:07.600Z,75536.91
2022-07-26T18:22:09.103Z,75522.38
2022-07-26T18:26:12.147Z,75526.53
2022-07-26T18:30:13.760Z,75543.13
2022-07-26T18:34:15.419Z,75547.28
2022-07-26T18:38:17.100Z,75568.03
2022-07-26T18:42:20.000Z,75592.97
2022-07-26T18:46:21.535Z,75630.31
2022-07-26T18:50:23.211Z,75636.56
2022-07-26T18:54:25.033Z,75638.63
2022-07-26T18:58:28.123Z,75640.69
2022-07-26T19:02:29.726Z,75646.94
2022-07-26T19:06:31.375Z,75659.38
2022-07-26T19:10:33.100Z,75676.00
2022-07-26T19:14:35.963Z,75671.84
2022-07-26T19:18:37.542Z,75688.44
2022-07-26T19:22:39.923Z,75688.44
2022-07-26T19:26:42.468Z,75723.75
2022-07-26T19:30:45.694Z,75756.94
2022-07-26T19:34:47.227Z,75779.78
2022-07-26T19:38:48.924Z,75783.94
2022-07-26T19:42:50.603Z,75800.53
2022-07-26T19:46:57.441Z,75815.06
2022-07-26T19:50:59.267Z,75837.91
2022-07-26T19:55:00.819Z,75869.06
2022-07-26T19:59:02.590Z,75871.13
2022-07-26T20:03:05.489Z,75893.97
2022-07-26T20:07:07.310Z,75885.66
2022-07-26T20:11:08.778Z,75891.88
2022-07-26T20:15:11.011Z,75900.19
2022-07-26T20:19:14.160Z,75896.03
2022-07-26T20:23:15.848Z,75908.50
2022-07-26T20:27:17.354Z,75912.66
2022-07-26T20:31:18.953Z,75910.56
2022-07-26T20:35:22.021Z,75920.94
2022-07-26T20:39:23.495Z,75941.72
2022-07-26T20:43:25.580Z,75929.25
2022-07-26T20:47:29.205Z,75956.25
2022-07-26T20:51:32.174Z,75947.94
2022-07-26T20:55:33.818Z,75941.72
2022-07-26T20:59:35.322Z,75945.88
2022-07-26T21:03:36.815Z,75954.16
2022-07-26T21:07:55.709Z,75960.41
2022-07-26T21:12:00.881Z,75958.31
2022-07-26T21:16:02.390Z,75962.47
2022-07-26T21:20:05.466Z,75952.09
2022-07-26T21:24:08.938Z,75945.88
2022-07-26T21:28:10.394Z,75954.16
2022-07-26T21:32:11.896Z,75954.16
2022-07-26T21:36:13.388Z,75979.09
2022-07-26T21:40:16.230Z,75968.69
2022-07-26T21:44:17.895Z,75983.22
2022-07-26T21:48:19.633Z,75985.31
2022-07-26T21:52:21.232Z,75985.31
2022-07-26T21:56:24.153Z,75999.84
2022-07-26T22:00:25.741Z,75995.69
2022-07-26T22:04:27.212Z,76006.06
2022-07-26T22:08:28.939Z,76016.44
2022-07-26T22:12:31.743Z,76028.91
2022-07-26T22:16:33.236Z,76033.06
2022-07-26T22:20:35.355Z,76039.28
2022-07-26T22:24:36.804Z,76033.06
2022-07-26T22:28:39.663Z,76033.06
2022-07-26T22:32:41.094Z,76049.66
2022-07-26T22:36:45.542Z,76049.66
2022-07-26T22:40:47.198Z,76037.22
2022-07-26T22:44:50.002Z,76053.81
2022-07-26T22:48:51.511Z,76049.66
2022-07-26T22:52:53.098Z,76057.97
2022-07-26T22:56:54.578Z,76055.91
2022-07-26T23:00:58.850Z,76057.97
2022-07-26T23:05:00.382Z,76062.13
2022-07-26T23:09:03.787Z,76068.34
2022-07-26T23:13:05.243Z,76080.81
2022-07-26T23:17:09.058Z,76082.88
2022-07-26T23:21:10.527Z,76080.81
2022-07-26T23:25:12.042Z,76082.88
2022-07-26T23:29:14.092Z,76082.88
2022-07-26T23:33:17.159Z,76095.34
2022-07-26T23:37:38.790Z,76091.19
2022-07-26T23:41:40.286Z,76109.88
2022-07-26T23:45:41.749Z,76103.66
2022-07-26T23:49:46.010Z,76109.88
2022-07-26T23:53:47.509Z,76120.25
2022-07-26T23:57:48.954Z,76114.03
